sensor_id;sensor_type;location;lat;lon;timestamp;P1;durP1;ratioP1;P2;durP2;ratioP2
9773;SDS011;4926;42.670;23.316;2022-08-30T00:02:17;14.43;;;11.88;;
9773;SDS011;4926;42.670;23.316;2022-08-30T00:04:45;15.40;;;10.98;;
9773;SDS011;4926;42.670;23.316;2022-08-30T00:07:13;13.07;;;11.68;;
9773;SDS011;4926;42.670;23.316;2022-08-30T00:09:40;13.45;;;12.13;;
9773;SDS011;4926;42.670;23.316;2022-08-30T00:12:07;14.43;;;11.65;;
9773;SDS011;4926;42.670;23.316;2022-08-30T00:14:34;15.45;;;11.20;;
9773;SDS011;4926;42.670;23.316;2022-08-30T00:17:02;13.45;;;11.10;;
9773;SDS011;4926;42.670;23.316;2022-08-30T00:19:30;12.18;;;10.85;;
9773;SDS011;4926;42.670;23.316;2022-08-30T00:21:57;12.68;;;11.38;;
9773;SDS011;4926;42.670;23.316;2022-08-30T00:24:27;13.80;;;11.32;;
9773;SDS011;4926;42.670;23.316;2022-08-30T00:26:54;12.93;;;11.65;;
9773;SDS011;4926;42.670;23.316;2022-08-30T00:29:20;12.52;;;11.27;;
9773;SDS011;4926;42.670;23.316;2022-08-30T00:31:47;12.77;;;11.40;;
9773;SDS011;4926;42.670;23.316;2022-08-30T00:34:14;13.32;;;11.90;;
9773;SDS011;4926;42.670;23.316;2022-08-30T00:36:43;13.60;;;11.40;;
9773;SDS011;4926;42.670;23.316;2022-08-30T00:39:12;15.27;;;11.85;;
9773;SDS011;4926;42.670;23.316;2022-08-30T00:41:39;12.82;;;11.27;;
9773;SDS011;4926;42.670;23.316;2022-08-30T00:44:09;12.27;;;10.98;;
9773;SDS011;4926;42.670;23.316;2022-08-30T00:46:36;12.93;;;11.70;;
9773;SDS011;4926;42.670;23.316;2022-08-30T00:49:12;11.45;;;10.35;;
9773;SDS011;4926;42.670;23.316;2022-08-30T00:51:39;12.18;;;10.90;;
9773;SDS011;4926;42.670;23.316;2022-08-30T00:54:09;12.48;;;10.77;;
9773;SDS011;4926;42.670;23.316;2022-08-30T00:56:40;12.15;;;11.00;;
9773;SDS011;4926;42.670;23.316;2022-08-30T00:59:08;14.43;;;11.38;;
9773;SDS011;4926;42.670;23.316;2022-08-30T01:01:38;14.93;;;11.65;;
9773;SDS011;4926;42.670;23.316;2022-08-30T01:04:05;14.98;;;12.10;;
9773;SDS011;4926;42.670;23.316;2022-08-30T01:06:33;14.02;;;12.52;;
9773;SDS011;4926;42.670;23.316;2022-08-30T01:09:06;13.95;;;12.52;;
9773;SDS011;4926;42.670;23.316;2022-08-30T01:11:42;16.30;;;12.63;;
9773;SDS011;4926;42.670;23.316;2022-08-30T01:14:15;13.80;;;12.27;;
9773;SDS011;4926;42.670;23.316;2022-08-30T01:16:47;16.23;;;11.82;;
9773;SDS011;4926;42.670;23.316;2022-08-30T01:19:18;12.93;;;11.63;;
9773;SDS011;4926;42.670;23.316;2022-08-30T01:21:58;13.77;;;12.18;;
9773;SDS011;4926;42.670;23.316;2022-08-30T01:24:38;15.20;;;12.15;;
9773;SDS011;4926;42.670;23.316;2022-08-30T01:27:04;13.38;;;11.98;;
9773;SDS011;4926;42.670;23.316;2022-08-30T01:29:31;13.38;;;12.05;;
9773;SDS011;4926;42.670;23.316;2022-08-30T01:31:59;16.63;;;12.02;;
9773;SDS011;4926;42.670;23.316;2022-08-30T01:34:30;13.18;;;11.82;;
9773;SDS011;4926;42.670;23.316;2022-08-30T01:36:57;13.90;;;11.88;;
9773;SDS011;4926;42.670;23.316;2022-08-30T01:39:24;13.55;;;12.15;;
9773;SDS011;4926;42.670;23.316;2022-08-30T01:41:57;14.05;;;11.93;;
9773;SDS011;4926;42.670;23.316;2022-08-30T01:44:25;13.98;;;12.60;;
9773;SDS011;4926;42.670;23.316;2022-08-30T01:46:51;12.80;;;11.43;;
9773;SDS011;4926;42.670;23.316;2022-08-30T01:49:19;13.07;;;11.88;;
9773;SDS011;4926;42.670;23.316;2022-08-30T01:51:49;14.25;;;12.77;;
9773;SDS011;4926;42.670;23.316;2022-08-30T01:54:16;13.20;;;11.52;;
9773;SDS011;4926;42.670;23.316;2022-08-30T01:56:43;13.13;;;11.82;;
9773;SDS011;4926;42.670;23.316;2022-08-30T01:59:12;14.90;;;11.88;;
9773;SDS011;4926;42.670;23.316;2022-08-30T02:01:39;13.82;;;12.32;;
9773;SDS011;4926;42.670;23.316;2022-08-30T02:04:08;13.50;;;12.10;;
9773;SDS011;4926;42.670;23.316;2022-08-30T02:06:36;14.23;;;12.77;;
9773;SDS011;4926;42.670;23.316;2022-08-30T02:09:04;17.77;;;13.05;;
9773;SDS011;4926;42.670;23.316;2022-08-30T02:11:33;13.77;;;12.48;;
9773;SDS011;4926;42.670;23.316;2022-08-30T02:14:01;14.48;;;12.82;;
9773;SDS011;4926;42.670;23.316;2022-08-30T02:16:30;14.93;;;12.48;;
9773;SDS011;4926;42.670;23.316;2022-08-30T02:18:57;14.10;;;12.27;;
9773;SDS011;4926;42.670;23.316;2022-08-30T02:21:24;15.98;;;13.13;;
9773;SDS011;4926;42.670;23.316;2022-08-30T02:23:51;16.48;;;13.00;;
9773;SDS011;4926;42.670;23.316;2022-08-30T02:26:19;17.00;;;13.13;;
9773;SDS011;4926;42.670;23.316;2022-08-30T02:31:30;15.00;;;13.45;;
9773;SDS011;4926;42.670;23.316;2022-08-30T02:33:58;16.52;;;14.75;;
9773;SDS011;4926;42.670;23.316;2022-08-30T02:36:25;18.65;;;13.82;;
9773;SDS011;4926;42.670;23.316;2022-08-30T02:38:53;15.65;;;14.13;;
9773;SDS011;4926;42.670;23.316;2022-08-30T02:41:20;17.58;;;13.82;;
9773;SDS011;4926;42.670;23.316;2022-08-30T02:43:54;16.00;;;14.15;;
9773;SDS011;4926;42.670;23.316;2022-08-30T02:46:24;19.02;;;13.60;;
9773;SDS011;4926;42.670;23.316;2022-08-30T02:48:53;15.07;;;13.45;;
9773;SDS011;4926;42.670;23.316;2022-08-30T02:51:19;15.10;;;13.63;;
9773;SDS011;4926;42.670;23.316;2022-08-30T02:53:46;16.63;;;13.50;;
9773;SDS011;4926;42.670;23.316;2022-08-30T02:56:16;15.48;;;13.43;;
9773;SDS011;4926;42.670;23.316;2022-08-30T02:58:43;16.45;;;14.25;;
9773;SDS011;4926;42.670;23.316;2022-08-30T03:01:13;15.20;;;13.65;;
9773;SDS011;4926;42.670;23.316;2022-08-30T03:03:42;15.15;;;13.35;;
9773;SDS011;4926;42.670;23.316;2022-08-30T03:06:12;16.52;;;14.45;;
9773;SDS011;4926;42.670;23.316;2022-08-30T03:08:39;16.63;;;14.60;;
9773;SDS011;4926;42.670;23.316;2022-08-30T03:11:07;16.95;;;13.48;;
9773;SDS011;4926;42.670;23.316;2022-08-30T03:13:34;18.33;;;14.20;;
9773;SDS011;4926;42.670;23.316;2022-08-30T03:16:02;16.90;;;14.20;;
9773;SDS011;4926;42.670;23.316;2022-08-30T03:18:34;19.33;;;14.48;;
9773;SDS011;4926;42.670;23.316;2022-08-30T03:21:01;19.60;;;14.68;;
9773;SDS011;4926;42.670;23.316;2022-08-30T03:23:32;16.83;;;15.15;;
9773;SDS011;4926;42.670;23.316;2022-08-30T03:26:02;15.30;;;13.75;;
9773;SDS011;4926;42.670;23.316;2022-08-30T03:28:28;14.98;;;13.57;;
9773;SDS011;4926;42.670;23.316;2022-08-30T03:30:55;15.23;;;13.68;;
9773;SDS011;4926;42.670;23.316;2022-08-30T03:33:22;15.50;;;13.88;;
9773;SDS011;4926;42.670;23.316;2022-08-30T03:35:49;14.93;;;13.43;;
9773;SDS011;4926;42.670;23.316;2022-08-30T03:38:16;16.83;;;12.68;;
9773;SDS011;4926;42.670;23.316;2022-08-30T03:40:44;17.13;;;13.35;;
9773;SDS011;4926;42.670;23.316;2022-08-30T03:43:13;15.65;;;12.23;;
9773;SDS011;4926;42.670;23.316;2022-08-30T03:45:43;16.70;;;13.10;;
9773;SDS011;4926;42.670;23.316;2022-08-30T03:48:10;14.52;;;13.13;;
9773;SDS011;4926;42.670;23.316;2022-08-30T03:50:37;15.00;;;13.52;;
9773;SDS011;4926;42.670;23.316;2022-08-30T03:53:04;15.07;;;13.10;;
9773;SDS011;4926;42.670;23.316;2022-08-30T03:55:34;14.45;;;12.95;;
9773;SDS011;4926;42.670;23.316;2022-08-30T03:58:05;15.35;;;12.93;;
9773;SDS011;4926;42.670;23.316;2022-08-30T04:00:35;14.50;;;13.00;;
9773;SDS011;4926;42.670;23.316;2022-08-30T04:03:04;16.27;;;13.40;;
9773;SDS011;4926;42.670;23.316;2022-08-30T04:05:34;16.83;;;13.77;;
9773;SDS011;4926;42.670;23.316;2022-08-30T04:08:01;16.80;;;15.10;;
9773;SDS011;4926;42.670;23.316;2022-08-30T04:10:28;17.23;;;14.18;;
9773;SDS011;4926;42.670;23.316;2022-08-30T04:12:55;15.90;;;14.00;;
9773;SDS011;4926;42.670;23.316;2022-08-30T04:15:24;16.00;;;14.32;;
9773;SDS011;4926;42.670;23.316;2022-08-30T04:17:51;17.20;;;14.93;;
9773;SDS011;4926;42.670;23.316;2022-08-30T04:20:20;20.20;;;14.93;;
9773;SDS011;4926;42.670;23.316;2022-08-30T04:22:47;16.35;;;14.75;;
9773;SDS011;4926;42.670;23.316;2022-08-30T04:25:14;17.05;;;14.93;;
9773;SDS011;4926;42.670;23.316;2022-08-30T04:27:44;18.33;;;15.32;;
9773;SDS011;4926;42.670;23.316;2022-08-30T04:30:12;17.48;;;15.63;;
9773;SDS011;4926;42.670;23.316;2022-08-30T04:32:43;20.55;;;15.93;;
9773;SDS011;4926;42.670;23.316;2022-08-30T04:35:10;22.98;;;17.65;;
9773;SDS011;4926;42.670;23.316;2022-08-30T04:37:38;21.08;;;16.83;;
9773;SDS011;4926;42.670;23.316;2022-08-30T04:40:05;18.27;;;16.30;;
9773;SDS011;4926;42.670;23.316;2022-08-30T04:42:36;17.70;;;15.93;;
9773;SDS011;4926;42.670;23.316;2022-08-30T04:45:09;18.05;;;15.88;;
9773;SDS011;4926;42.670;23.316;2022-08-30T04:47:38;18.80;;;16.50;;
9773;SDS011;4926;42.670;23.316;2022-08-30T04:50:10;18.20;;;16.38;;
9773;SDS011;4926;42.670;23.316;2022-08-30T04:52:38;18.92;;;16.95;;
9773;SDS011;4926;42.670;23.316;2022-08-30T04:55:05;17.88;;;16.15;;
9773;SDS011;4926;42.670;23.316;2022-08-30T04:57:35;19.45;;;17.55;;
9773;SDS011;4926;42.670;23.316;2022-08-30T05:00:03;21.77;;;18.08;;
9773;SDS011;4926;42.670;23.316;2022-08-30T05:02:31;18.92;;;16.92;;
9773;SDS011;4926;42.670;23.316;2022-08-30T05:04:58;19.50;;;16.50;;
9773;SDS011;4926;42.670;23.316;2022-08-30T05:07:43;20.38;;;15.85;;
9773;SDS011;4926;42.670;23.316;2022-08-30T05:10:12;18.65;;;16.63;;
9773;SDS011;4926;42.670;23.316;2022-08-30T05:12:42;18.05;;;16.35;;
9773;SDS011;4926;42.670;23.316;2022-08-30T05:15:12;18.40;;;16.50;;
9773;SDS011;4926;42.670;23.316;2022-08-30T05:17:39;19.13;;;15.98;;
9773;SDS011;4926;42.670;23.316;2022-08-30T05:20:07;19.40;;;17.25;;
9773;SDS011;4926;42.670;23.316;2022-08-30T05:22:39;23.17;;;18.13;;
9773;SDS011;4926;42.670;23.316;2022-08-30T05:25:15;22.38;;;17.33;;
9773;SDS011;4926;42.670;23.316;2022-08-30T05:27:45;18.10;;;16.10;;
9773;SDS011;4926;42.670;23.316;2022-08-30T05:30:13;18.42;;;16.60;;
9773;SDS011;4926;42.670;23.316;2022-08-30T05:32:44;17.25;;;15.48;;
9773;SDS011;4926;42.670;23.316;2022-08-30T05:35:11;19.00;;;16.65;;
9773;SDS011;4926;42.670;23.316;2022-08-30T05:37:40;18.27;;;16.30;;
9773;SDS011;4926;42.670;23.316;2022-08-30T05:40:07;17.95;;;16.15;;
9773;SDS011;4926;42.670;23.316;2022-08-30T05:42:37;18.85;;;16.67;;
9773;SDS011;4926;42.670;23.316;2022-08-30T05:45:07;19.73;;;17.75;;
9773;SDS011;4926;42.670;23.316;2022-08-30T05:47:37;20.40;;;17.73;;
9773;SDS011;4926;42.670;23.316;2022-08-30T05:50:05;21.10;;;16.83;;
9773;SDS011;4926;42.670;23.316;2022-08-30T05:52:33;23.63;;;18.08;;
9773;SDS011;4926;42.670;23.316;2022-08-30T05:55:00;22.52;;;18.35;;
9773;SDS011;4926;42.670;23.316;2022-08-30T05:57:30;18.25;;;16.35;;
9773;SDS011;4926;42.670;23.316;2022-08-30T05:59:58;25.40;;;18.40;;
9773;SDS011;4926;42.670;23.316;2022-08-30T06:02:27;25.35;;;18.95;;
9773;SDS011;4926;42.670;23.316;2022-08-30T06:04:55;20.95;;;18.58;;
9773;SDS011;4926;42.670;23.316;2022-08-30T06:07:22;30.60;;;18.83;;
9773;SDS011;4926;42.670;23.316;2022-08-30T06:09:49;20.67;;;18.50;;
9773;SDS011;4926;42.670;23.316;2022-08-30T06:12:16;20.65;;;18.65;;
9773;SDS011;4926;42.670;23.316;2022-08-30T06:14:43;22.05;;;19.80;;
9773;SDS011;4926;42.670;23.316;2022-08-30T06:17:11;23.05;;;19.42;;
9773;SDS011;4926;42.670;23.316;2022-08-30T06:19:38;22.90;;;19.95;;
9773;SDS011;4926;42.670;23.316;2022-08-30T06:22:07;25.48;;;22.73;;
9773;SDS011;4926;42.670;23.316;2022-08-30T06:24:34;24.88;;;22.10;;
9773;SDS011;4926;42.670;23.316;2022-08-30T06:27:01;23.08;;;20.67;;
9773;SDS011;4926;42.670;23.316;2022-08-30T06:29:28;22.55;;;20.17;;
9773;SDS011;4926;42.670;23.316;2022-08-30T06:31:58;22.52;;;20.42;;
9773;SDS011;4926;42.670;23.316;2022-08-30T06:34:26;24.77;;;20.42;;
9773;SDS011;4926;42.670;23.316;2022-08-30T06:36:55;23.88;;;20.90;;
9773;SDS011;4926;42.670;23.316;2022-08-30T06:39:22;22.25;;;19.75;;
9773;SDS011;4926;42.670;23.316;2022-08-30T06:41:49;22.00;;;18.15;;
9773;SDS011;4926;42.670;23.316;2022-08-30T06:44:16;23.88;;;19.42;;
9773;SDS011;4926;42.670;23.316;2022-08-30T06:46:42;21.17;;;18.98;;
9773;SDS011;4926;42.670;23.316;2022-08-30T06:49:09;24.73;;;19.15;;
9773;SDS011;4926;42.670;23.316;2022-08-30T06:51:40;21.05;;;18.52;;
9773;SDS011;4926;42.670;23.316;2022-08-30T06:54:08;21.92;;;16.67;;
9773;SDS011;4926;42.670;23.316;2022-08-30T06:56:37;19.40;;;16.80;;
9773;SDS011;4926;42.670;23.316;2022-08-30T06:59:07;19.88;;;17.83;;
9773;SDS011;4926;42.670;23.316;2022-08-30T07:01:33;20.98;;;18.75;;
9773;SDS011;4926;42.670;23.316;2022-08-30T07:04:00;22.27;;;19.70;;
9773;SDS011;4926;42.670;23.316;2022-08-30T07:06:31;21.70;;;19.55;;
9773;SDS011;4926;42.670;23.316;2022-08-30T07:08:59;23.35;;;20.00;;
9773;SDS011;4926;42.670;23.316;2022-08-30T07:11:27;23.73;;;19.33;;
9773;SDS011;4926;42.670;23.316;2022-08-30T07:13:55;21.42;;;19.27;;
9773;SDS011;4926;42.670;23.316;2022-08-30T07:16:22;18.67;;;16.77;;
9773;SDS011;4926;42.670;23.316;2022-08-30T07:18:49;22.33;;;17.95;;
9773;SDS011;4926;42.670;23.316;2022-08-30T07:21:16;20.13;;;18.02;;
9773;SDS011;4926;42.670;23.316;2022-08-30T07:23:45;21.83;;;19.52;;
9773;SDS011;4926;42.670;23.316;2022-08-30T07:26:16;19.98;;;17.70;;
9773;SDS011;4926;42.670;23.316;2022-08-30T07:28:45;16.98;;;15.18;;
9773;SDS011;4926;42.670;23.316;2022-08-30T07:31:13;16.35;;;14.65;;
9773;SDS011;4926;42.670;23.316;2022-08-30T07:33:40;18.02;;;15.98;;
9773;SDS011;4926;42.670;23.316;2022-08-30T07:36:10;17.98;;;15.38;;
9773;SDS011;4926;42.670;23.316;2022-08-30T07:38:38;18.42;;;16.40;;
9773;SDS011;4926;42.670;23.316;2022-08-30T07:41:07;20.08;;;16.58;;
9773;SDS011;4926;42.670;23.316;2022-08-30T07:43:35;18.50;;;16.50;;
9773;SDS011;4926;42.670;23.316;2022-08-30T07:46:05;20.08;;;17.98;;
9773;SDS011;4926;42.670;23.316;2022-08-30T07:48:33;19.10;;;16.98;;
9773;SDS011;4926;42.670;23.316;2022-08-30T07:51:00;22.35;;;17.88;;
9773;SDS011;4926;42.670;23.316;2022-08-30T07:53:28;19.65;;;17.55;;
9773;SDS011;4926;42.670;23.316;2022-08-30T07:55:56;20.33;;;18.40;;
9773;SDS011;4926;42.670;23.316;2022-08-30T07:58:23;20.00;;;17.90;;
9773;SDS011;4926;42.670;23.316;2022-08-30T08:00:52;20.45;;;18.27;;
9773;SDS011;4926;42.670;23.316;2022-08-30T08:03:23;20.67;;;18.33;;
9773;SDS011;4926;42.670;23.316;2022-08-30T08:05:50;21.02;;;18.88;;
9773;SDS011;4926;42.670;23.316;2022-08-30T08:08:17;19.58;;;17.50;;
9773;SDS011;4926;42.670;23.316;2022-08-30T08:10:46;21.52;;;18.08;;
9773;SDS011;4926;42.670;23.316;2022-08-30T08:13:13;19.00;;;16.98;;
9773;SDS011;4926;42.670;23.316;2022-08-30T08:15:40;21.00;;;18.83;;
9773;SDS011;4926;42.670;23.316;2022-08-30T08:18:08;19.55;;;17.55;;
9773;SDS011;4926;42.670;23.316;2022-08-30T08:20:35;21.38;;;18.35;;
9773;SDS011;4926;42.670;23.316;2022-08-30T08:23:04;21.27;;;19.05;;
9773;SDS011;4926;42.670;23.316;2022-08-30T08:25:36;20.45;;;18.33;;
9773;SDS011;4926;42.670;23.316;2022-08-30T08:28:07;23.92;;;18.90;;
9773;SDS011;4926;42.670;23.316;2022-08-30T08:30:35;20.95;;;18.80;;
9773;SDS011;4926;42.670;23.316;2022-08-30T08:33:03;21.17;;;18.45;;
9773;SDS011;4926;42.670;23.316;2022-08-30T08:35:32;20.90;;;18.70;;
9773;SDS011;4926;42.670;23.316;2022-08-30T08:37:59;21.02;;;18.88;;
9773;SDS011;4926;42.670;23.316;2022-08-30T08:40:26;23.08;;;19.90;;
9773;SDS011;4926;42.670;23.316;2022-08-30T08:42:58;21.98;;;19.27;;
9773;SDS011;4926;42.670;23.316;2022-08-30T08:45:37;21.65;;;19.05;;
9773;SDS011;4926;42.670;23.316;2022-08-30T08:48:15;25.42;;;17.45;;
9773;SDS011;4926;42.670;23.316;2022-08-30T08:50:53;20.58;;;18.05;;
9773;SDS011;4926;42.670;23.316;2022-08-30T08:53:38;20.25;;;17.63;;
9773;SDS011;4926;42.670;23.316;2022-08-30T08:56:06;20.15;;;17.67;;
9773;SDS011;4926;42.670;23.316;2022-08-30T08:58:40;21.38;;;17.27;;
9773;SDS011;4926;42.670;23.316;2022-08-30T09:01:09;25.30;;;18.15;;
9773;SDS011;4926;42.670;23.316;2022-08-30T09:03:37;20.98;;;18.77;;
9773;SDS011;4926;42.670;23.316;2022-08-30T09:06:09;24.77;;;18.02;;
9773;SDS011;4926;42.670;23.316;2022-08-30T09:08:55;25.23;;;18.75;;
9773;SDS011;4926;42.670;23.316;2022-08-30T09:11:23;22.08;;;17.90;;
9773;SDS011;4926;42.670;23.316;2022-08-30T09:13:56;22.88;;;17.83;;
9773;SDS011;4926;42.670;23.316;2022-08-30T09:19:39;23.23;;;18.25;;
9773;SDS011;4926;42.670;23.316;2022-08-30T09:22:18;24.15;;;17.70;;
9773;SDS011;4926;42.670;23.316;2022-08-30T09:24:51;25.40;;;19.33;;
9773;SDS011;4926;42.670;23.316;2022-08-30T09:27:23;30.88;;;21.17;;
9773;SDS011;4926;42.670;23.316;2022-08-30T09:29:53;23.15;;;20.45;;
9773;SDS011;4926;42.670;23.316;2022-08-30T09:32:25;23.13;;;19.55;;
9773;SDS011;4926;42.670;23.316;2022-08-30T09:34:59;20.67;;;18.55;;
9773;SDS011;4926;42.670;23.316;2022-08-30T09:37:29;23.90;;;19.92;;
9773;SDS011;4926;42.670;23.316;2022-08-30T09:39:58;22.25;;;19.90;;
9773;SDS011;4926;42.670;23.316;2022-08-30T09:42:27;22.90;;;19.25;;
9773;SDS011;4926;42.670;23.316;2022-08-30T09:44:55;24.92;;;19.48;;
9773;SDS011;4926;42.670;23.316;2022-08-30T09:47:35;24.20;;;21.50;;
9773;SDS011;4926;42.670;23.316;2022-08-30T09:50:05;26.02;;;20.05;;
9773;SDS011;4926;42.670;23.316;2022-08-30T09:52:37;21.48;;;18.75;;
9773;SDS011;4926;42.670;23.316;2022-08-30T09:55:16;21.48;;;17.80;;
9773;SDS011;4926;42.670;23.316;2022-08-30T09:57:54;20.50;;;18.38;;
9773;SDS011;4926;42.670;23.316;2022-08-30T10:00:28;19.90;;;16.50;;
9773;SDS011;4926;42.670;23.316;2022-08-30T10:03:07;18.52;;;16.08;;
9773;SDS011;4926;42.670;23.316;2022-08-30T10:05:56;18.70;;;16.10;;
9773;SDS011;4926;42.670;23.316;2022-08-30T10:08:35;19.13;;;17.00;;
9773;SDS011;4926;42.670;23.316;2022-08-30T10:11:16;19.08;;;16.25;;
9773;SDS011;4926;42.670;23.316;2022-08-30T10:14:02;17.33;;;15.65;;
9773;SDS011;4926;42.670;23.316;2022-08-30T10:16:48;20.63;;;17.15;;
9773;SDS011;4926;42.670;23.316;2022-08-30T10:19:23;20.95;;;17.48;;
9773;SDS011;4926;42.670;23.316;2022-08-30T10:22:03;22.00;;;17.48;;
9773;SDS011;4926;42.670;23.316;2022-08-30T10:24:39;21.33;;;16.50;;
9773;SDS011;4926;42.670;23.316;2022-08-30T10:27:11;18.88;;;17.08;;
9773;SDS011;4926;42.670;23.316;2022-08-30T10:29:44;21.55;;;18.08;;
9773;SDS011;4926;42.670;23.316;2022-08-30T10:32:15;22.30;;;18.70;;
9773;SDS011;4926;42.670;23.316;2022-08-30T10:34:50;25.90;;;18.10;;
9773;SDS011;4926;42.670;23.316;2022-08-30T10:37:24;29.92;;;17.95;;
9773;SDS011;4926;42.670;23.316;2022-08-30T10:39:58;20.08;;;17.40;;
9773;SDS011;4926;42.670;23.316;2022-08-30T10:42:51;22.13;;;17.52;;
9773;SDS011;4926;42.670;23.316;2022-08-30T10:45:19;26.00;;;16.77;;
9773;SDS011;4926;42.670;23.316;2022-08-30T10:47:49;19.02;;;17.08;;
9773;SDS011;4926;42.670;23.316;2022-08-30T10:50:26;19.88;;;16.80;;
9773;SDS011;4926;42.670;23.316;2022-08-30T10:52:58;20.35;;;16.23;;
9773;SDS011;4926;42.670;23.316;2022-08-30T10:55:35;22.67;;;16.80;;
9773;SDS011;4926;42.670;23.316;2022-08-30T10:58:09;20.58;;;16.02;;
9773;SDS011;4926;42.670;23.316;2022-08-30T11:00:38;18.50;;;14.63;;
9773;SDS011;4926;42.670;23.316;2022-08-30T11:06:19;18.63;;;16.05;;
9773;SDS011;4926;42.670;23.316;2022-08-30T11:12:26;22.83;;;14.35;;
9773;SDS011;4926;42.670;23.316;2022-08-30T11:15:14;17.48;;;12.93;;
9773;SDS011;4926;42.670;23.316;2022-08-30T11:17:45;17.98;;;13.00;;
9773;SDS011;4926;42.670;23.316;2022-08-30T11:20:23;19.63;;;12.85;;
9773;SDS011;4926;42.670;23.316;2022-08-30T11:25:51;18.38;;;13.23;;
9773;SDS011;4926;42.670;23.316;2022-08-30T11:31:41;18.15;;;13.10;;
9773;SDS011;4926;42.670;23.316;2022-08-30T11:34:08;18.83;;;12.93;;
9773;SDS011;4926;42.670;23.316;2022-08-30T11:39:52;16.52;;;13.70;;
9773;SDS011;4926;42.670;23.316;2022-08-30T11:42:25;16.75;;;12.95;;
9773;SDS011;4926;42.670;23.316;2022-08-30T11:48:04;13.70;;;10.90;;
9773;SDS011;4926;42.670;23.316;2022-08-30T11:50:34;14.27;;;11.55;;
9773;SDS011;4926;42.670;23.316;2022-08-30T11:53:15;15.95;;;10.90;;
9773;SDS011;4926;42.670;23.316;2022-08-30T11:55:54;13.85;;;11.35;;
9773;SDS011;4926;42.670;23.316;2022-08-30T11:58:34;15.60;;;11.68;;
9773;SDS011;4926;42.670;23.316;2022-08-30T12:01:30;15.38;;;11.07;;
9773;SDS011;4926;42.670;23.316;2022-08-30T12:04:05;14.27;;;11.77;;
9773;SDS011;4926;42.670;23.316;2022-08-30T12:06:42;17.50;;;11.13;;
9773;SDS011;4926;42.670;23.316;2022-08-30T12:09:56;13.75;;;11.45;;
9773;SDS011;4926;42.670;23.316;2022-08-30T12:12:47;12.05;;;10.52;;
9773;SDS011;4926;42.670;23.316;2022-08-30T12:18:22;15.65;;;11.95;;
9773;SDS011;4926;42.670;23.316;2022-08-30T12:20:55;13.25;;;10.73;;
9773;SDS011;4926;42.670;23.316;2022-08-30T12:23:32;16.77;;;11.23;;
9773;SDS011;4926;42.670;23.316;2022-08-30T12:26:08;16.00;;;10.88;;
9773;SDS011;4926;42.670;23.316;2022-08-30T12:28:38;16.73;;;10.93;;
9773;SDS011;4926;42.670;23.316;2022-08-30T12:31:10;14.75;;;10.50;;
9773;SDS011;4926;42.670;23.316;2022-08-30T12:33:43;17.10;;;10.30;;
9773;SDS011;4926;42.670;23.316;2022-08-30T12:36:15;13.88;;;10.25;;
9773;SDS011;4926;42.670;23.316;2022-08-30T12:39:04;12.55;;;10.38;;
9773;SDS011;4926;42.670;23.316;2022-08-30T12:41:36;12.93;;;10.52;;
9773;SDS011;4926;42.670;23.316;2022-08-30T12:44:07;17.05;;;11.48;;
9773;SDS011;4926;42.670;23.316;2022-08-30T12:46:39;14.80;;;11.10;;
9773;SDS011;4926;42.670;23.316;2022-08-30T12:49:07;14.60;;;10.90;;
9773;SDS011;4926;42.670;23.316;2022-08-30T12:51:36;14.32;;;11.55;;
9773;SDS011;4926;42.670;23.316;2022-08-30T12:54:07;16.17;;;11.00;;
9773;SDS011;4926;42.670;23.316;2022-08-30T12:56:53;12.52;;;10.93;;
9773;SDS011;4926;42.670;23.316;2022-08-30T12:59:39;12.32;;;10.73;;
9773;SDS011;4926;42.670;23.316;2022-08-30T13:02:11;12.98;;;11.15;;
9773;SDS011;4926;42.670;23.316;2022-08-30T13:04:39;13.30;;;10.70;;
9773;SDS011;4926;42.670;23.316;2022-08-30T13:07:06;14.63;;;10.82;;
9773;SDS011;4926;42.670;23.316;2022-08-30T13:09:34;16.38;;;10.95;;
9773;SDS011;4926;42.670;23.316;2022-08-30T13:12:03;12.65;;;10.35;;
9773;SDS011;4926;42.670;23.316;2022-08-30T13:14:35;16.00;;;11.57;;
9773;SDS011;4926;42.670;23.316;2022-08-30T13:17:21;17.00;;;11.43;;
9773;SDS011;4926;42.670;23.316;2022-08-30T13:20:00;12.68;;;11.25;;
9773;SDS011;4926;42.670;23.316;2022-08-30T13:22:30;15.27;;;11.82;;
9773;SDS011;4926;42.670;23.316;2022-08-30T13:24:59;19.50;;;12.73;;
9773;SDS011;4926;42.670;23.316;2022-08-30T13:27:29;14.63;;;12.40;;
9773;SDS011;4926;42.670;23.316;2022-08-30T13:30:05;17.25;;;13.32;;
9773;SDS011;4926;42.670;23.316;2022-08-30T13:32:40;17.65;;;13.15;;
9773;SDS011;4926;42.670;23.316;2022-08-30T13:35:08;15.23;;;13.48;;
9773;SDS011;4926;42.670;23.316;2022-08-30T13:37:39;13.43;;;11.80;;
9773;SDS011;4926;42.670;23.316;2022-08-30T13:40:08;15.52;;;12.35;;
9773;SDS011;4926;42.670;23.316;2022-08-30T13:42:35;18.38;;;11.30;;
9773;SDS011;4926;42.670;23.316;2022-08-30T13:45:04;17.10;;;12.15;;
9773;SDS011;4926;42.670;23.316;2022-08-30T13:47:33;13.75;;;12.18;;
9773;SDS011;4926;42.670;23.316;2022-08-30T13:50:02;16.30;;;12.23;;
9773;SDS011;4926;42.670;23.316;2022-08-30T13:52:30;15.32;;;12.52;;
9773;SDS011;4926;42.670;23.316;2022-08-30T13:54:57;13.05;;;11.70;;
9773;SDS011;4926;42.670;23.316;2022-08-30T13:57:25;17.13;;;12.50;;
9773;SDS011;4926;42.670;23.316;2022-08-30T13:59:53;14.68;;;13.10;;
9773;SDS011;4926;42.670;23.316;2022-08-30T14:02:23;16.98;;;13.48;;
9773;SDS011;4926;42.670;23.316;2022-08-30T14:04:50;19.15;;;13.45;;
9773;SDS011;4926;42.670;23.316;2022-08-30T14:07:18;13.95;;;12.55;;
9773;SDS011;4926;42.670;23.316;2022-08-30T14:09:48;14.85;;;13.30;;
9773;SDS011;4926;42.670;23.316;2022-08-30T14:12:15;16.25;;;13.60;;
9773;SDS011;4926;42.670;23.316;2022-08-30T14:14:41;18.30;;;12.98;;
9773;SDS011;4926;42.670;23.316;2022-08-30T14:17:08;17.85;;;13.65;;
9773;SDS011;4926;42.670;23.316;2022-08-30T14:19:35;15.82;;;13.00;;
9773;SDS011;4926;42.670;23.316;2022-08-30T14:22:02;15.30;;;13.27;;
9773;SDS011;4926;42.670;23.316;2022-08-30T14:24:35;14.52;;;13.13;;
9773;SDS011;4926;42.670;23.316;2022-08-30T14:27:02;14.70;;;12.98;;
9773;SDS011;4926;42.670;23.316;2022-08-30T14:29:29;14.50;;;13.10;;
9773;SDS011;4926;42.670;23.316;2022-08-30T14:31:56;16.15;;;13.25;;
9773;SDS011;4926;42.670;23.316;2022-08-30T14:34:24;19.27;;;13.10;;
9773;SDS011;4926;42.670;23.316;2022-08-30T14:36:54;14.02;;;12.38;;
9773;SDS011;4926;42.670;23.316;2022-08-30T14:39:22;16.27;;;12.90;;
9773;SDS011;4926;42.670;23.316;2022-08-30T14:41:53;13.93;;;12.00;;
9773;SDS011;4926;42.670;23.316;2022-08-30T14:44:21;15.40;;;12.05;;
9773;SDS011;4926;42.670;23.316;2022-08-30T14:46:49;16.42;;;12.98;;
9773;SDS011;4926;42.670;23.316;2022-08-30T14:49:16;15.15;;;13.35;;
9773;SDS011;4926;42.670;23.316;2022-08-30T14:51:48;22.23;;;13.38;;
9773;SDS011;4926;42.670;23.316;2022-08-30T14:54:16;22.20;;;13.35;;
9773;SDS011;4926;42.670;23.316;2022-08-30T14:56:44;15.10;;;12.50;;
9773;SDS011;4926;42.670;23.316;2022-08-30T14:59:13;17.90;;;12.88;;
9773;SDS011;4926;42.670;23.316;2022-08-30T15:01:42;16.15;;;13.10;;
9773;SDS011;4926;42.670;23.316;2022-08-30T15:04:11;14.23;;;12.55;;
9773;SDS011;4926;42.670;23.316;2022-08-30T15:06:43;13.88;;;12.40;;
9773;SDS011;4926;42.670;23.316;2022-08-30T15:09:13;14.48;;;11.90;;
9773;SDS011;4926;42.670;23.316;2022-08-30T15:11:40;16.73;;;12.02;;
9773;SDS011;4926;42.670;23.316;2022-08-30T15:14:08;19.23;;;12.50;;
9773;SDS011;4926;42.670;23.316;2022-08-30T15:16:37;15.65;;;12.43;;
9773;SDS011;4926;42.670;23.316;2022-08-30T15:19:05;15.50;;;12.35;;
9773;SDS011;4926;42.670;23.316;2022-08-30T15:21:34;15.23;;;12.80;;